sensor_id;sensor_type;location;lat;lon;timestamp;temperature;humidity
51305;HTU21D;37392;50.964;6.952;2024-01-25T00:01:13;8.66;107.14
51305;HTU21D;37392;50.964;6.952;2024-01-25T00:03:38;8.70;107.09
51305;HTU21D;37392;50.964;6.952;2024-01-25T00:06:07;8.72;107.23
51305;HTU21D;37392;50.964;6.952;2024-01-25T00:08:33;8.76;107.26
51305;HTU21D;37392;50.964;6.952;2024-01-25T00:11:01;8.68;107.17
51305;HTU21D;37392;50.964;6.952;2024-01-25T00:13:27;8.70;107.43
51305;HTU21D;37392;50.964;6.952;2024-01-25T00:15:53;8.71;107.68
51305;HTU21D;37392;50.964;6.952;2024-01-25T00:18:18;8.75;107.39
51305;HTU21D;37392;50.964;6.952;2024-01-25T00:20:44;8.82;107.37
51305;HTU21D;37392;50.964;6.952;2024-01-25T00:23:09;8.80;107.37
51305;HTU21D;37392;50.964;6.952;2024-01-25T00:25:35;8.86;107.44
51305;HTU21D;37392;50.964;6.952;2024-01-25T00:28:00;8.89;107.30
51305;HTU21D;37392;50.964;6.952;2024-01-25T00:30:26;8.92;107.08
51305;HTU21D;37392;50.964;6.952;2024-01-25T00:32:51;8.94;107.01
51305;HTU21D;37392;50.964;6.952;2024-01-25T00:35:17;8.89;107.09
51305;HTU21D;37392;50.964;6.952;2024-01-25T00:37:43;8.88;107.20
51305;HTU21D;37392;50.964;6.952;2024-01-25T00:40:09;8.90;107.23
51305;HTU21D;37392;50.964;6.952;2024-01-25T00:42:42;8.89;107.44
51305;HTU21D;37392;50.964;6.952;2024-01-25T00:45:09;8.88;107.35
51305;HTU21D;37392;50.964;6.952;2024-01-25T00:47:36;8.89;107.36
51305;HTU21D;37392;50.964;6.952;2024-01-25T00:50:02;8.89;107.38
51305;HTU21D;37392;50.964;6.952;2024-01-25T00:52:29;8.88;107.33
51305;HTU21D;37392;50.964;6.952;2024-01-25T00:54:55;8.83;107.43
51305;HTU21D;37392;50.964;6.952;2024-01-25T00:57:24;8.77;107.85
51305;HTU21D;37392;50.964;6.952;2024-01-25T00:59:50;8.71;108.07
51305;HTU21D;37392;50.964;6.952;2024-01-25T01:02:16;8.59;108.33
51305;HTU21D;37392;50.964;6.952;2024-01-25T01:04:42;8.55;109.05
51305;HTU21D;37392;50.964;6.952;2024-01-25T01:07:09;8.51;109.38
51305;HTU21D;37392;50.964;6.952;2024-01-25T01:09:35;8.41;109.64
51305;HTU21D;37392;50.964;6.952;2024-01-25T01:12:00;8.35;109.95
51305;HTU21D;37392;50.964;6.952;2024-01-25T01:14:26;8.29;110.18
51305;HTU21D;37392;50.964;6.952;2024-01-25T01:16:54;8.14;110.69
51305;HTU21D;37392;50.964;6.952;2024-01-25T01:19:20;8.02;111.23
51305;HTU21D;37392;50.964;6.952;2024-01-25T01:21:46;7.92;111.74
51305;HTU21D;37392;50.964;6.952;2024-01-25T01:24:11;7.82;112.32
51305;HTU21D;37392;50.964;6.952;2024-01-25T01:26:37;7.71;112.88
51305;HTU21D;37392;50.964;6.952;2024-01-25T01:29:03;7.65;113.25
51305;HTU21D;37392;50.964;6.952;2024-01-25T01:31:29;7.59;113.67
51305;HTU21D;37392;50.964;6.952;2024-01-25T01:33:55;7.55;114.11
51305;HTU21D;37392;50.964;6.952;2024-01-25T01:36:21;7.46;114.35
51305;HTU21D;37392;50.964;6.952;2024-01-25T01:38:47;7.37;114.77
51305;HTU21D;37392;50.964;6.952;2024-01-25T01:41:12;7.26;115.17
51305;HTU21D;37392;50.964;6.952;2024-01-25T01:43:38;7.22;115.57
51305;HTU21D;37392;50.964;6.952;2024-01-25T01:46:10;7.17;115.80
51305;HTU21D;37392;50.964;6.952;2024-01-25T01:48:39;7.12;116.11
51305;HTU21D;37392;50.964;6.952;2024-01-25T01:51:05;7.07;116.40
51305;HTU21D;37392;50.964;6.952;2024-01-25T01:53:32;7.10;116.77
51305;HTU21D;37392;50.964;6.952;2024-01-25T01:55:59;7.03;116.49
51305;HTU21D;37392;50.964;6.952;2024-01-25T01:58:25;6.95;116.83
51305;HTU21D;37392;50.964;6.952;2024-01-25T02:00:53;6.87;117.34
51305;HTU21D;37392;50.964;6.952;2024-01-25T02:03:19;6.81;117.92
51305;HTU21D;37392;50.964;6.952;2024-01-25T02:05:45;6.78;118.31
51305;HTU21D;37392;50.964;6.952;2024-01-25T02:08:10;6.75;118.48
51305;HTU21D;37392;50.964;6.952;2024-01-25T02:10:36;6.66;118.28
51305;HTU21D;37392;50.964;6.952;2024-01-25T02:13:01;6.57;118.60
51305;HTU21D;37392;50.964;6.952;2024-01-25T02:15:27;6.56;-5.68
51305;HTU21D;37392;50.964;6.952;2024-01-25T02:17:52;6.52;-5.67
51305;HTU21D;37392;50.964;6.952;2024-01-25T02:20:19;6.41;-5.56
51305;HTU21D;37392;50.964;6.952;2024-01-25T02:22:44;6.41;-5.11
51305;HTU21D;37392;50.964;6.952;2024-01-25T02:25:10;6.38;-4.75
51305;HTU21D;37392;50.964;6.952;2024-01-25T02:27:35;6.38;-4.64
51305;HTU21D;37392;50.964;6.952;2024-01-25T02:30:05;6.46;-3.86
51305;HTU21D;37392;50.964;6.952;2024-01-25T02:32:32;6.55;-4.41
51305;HTU21D;37392;50.964;6.952;2024-01-25T02:34:57;6.56;-4.40
51305;HTU21D;37392;50.964;6.952;2024-01-25T02:37:23;6.66;-4.39
51305;HTU21D;37392;50.964;6.952;2024-01-25T02:39:48;6.64;-4.90
51305;HTU21D;37392;50.964;6.952;2024-01-25T02:42:13;6.74;-4.83
51305;HTU21D;37392;50.964;6.952;2024-01-25T02:44:42;6.78;-5.18
51305;HTU21D;37392;50.964;6.952;2024-01-25T02:47:08;6.79;-5.52
51305;HTU21D;37392;50.964;6.952;2024-01-25T02:49:34;6.76;-5.76
51305;HTU21D;37392;50.964;6.952;2024-01-25T02:51:59;6.73;-5.78
51305;HTU21D;37392;50.964;6.952;2024-01-25T02:54:25;6.73;-5.41
51305;HTU21D;37392;50.964;6.952;2024-01-25T02:56:51;6.71;-5.24
51305;HTU21D;37392;50.964;6.952;2024-01-25T02:59:17;6.79;-5.06
51305;HTU21D;37392;50.964;6.952;2024-01-25T03:01:43;6.74;-5.39
51305;HTU21D;37392;50.964;6.952;2024-01-25T03:04:10;6.70;-5.21
51305;HTU21D;37392;50.964;6.952;2024-01-25T03:06:36;6.71;-4.92
51305;HTU21D;37392;50.964;6.952;2024-01-25T03:09:02;6.79;-4.58
51305;HTU21D;37392;50.964;6.952;2024-01-25T03:11:30;6.81;-4.83
51305;HTU21D;37392;50.964;6.952;2024-01-25T03:13:55;6.83;-5.23
51305;HTU21D;37392;50.964;6.952;2024-01-25T03:16:24;6.73;-4.97
51305;HTU21D;37392;50.964;6.952;2024-01-25T03:18:49;6.69;-4.60
51305;HTU21D;37392;50.964;6.952;2024-01-25T03:21:15;6.53;-4.78
51305;HTU21D;37392;50.964;6.952;2024-01-25T03:23:40;6.40;-4.49
51305;HTU21D;37392;50.964;6.952;2024-01-25T03:26:06;6.35;-3.40
51305;HTU21D;37392;50.964;6.952;2024-01-25T03:28:33;6.29;-2.85
51305;HTU21D;37392;50.964;6.952;2024-01-25T03:31:02;6.23;-2.54
51305;HTU21D;37392;50.964;6.952;2024-01-25T03:33:28;6.13;-2.61
51305;HTU21D;37392;50.964;6.952;2024-01-25T03:35:54;6.01;-2.44
51305;HTU21D;37392;50.964;6.952;2024-01-25T03:38:19;5.91;-2.64
51305;HTU21D;37392;50.964;6.952;2024-01-25T03:40:45;5.94;-1.00
51305;HTU21D;37392;50.964;6.952;2024-01-25T03:43:11;5.91;-0.87
51305;HTU21D;37392;50.964;6.952;2024-01-25T03:45:37;5.82;-0.84
51305;HTU21D;37392;50.964;6.952;2024-01-25T03:48:03;5.81;-0.89
51305;HTU21D;37392;50.964;6.952;2024-01-25T03:50:28;5.67;-1.12
51305;HTU21D;37392;50.964;6.952;2024-01-25T03:52:54;5.67;-0.29
51305;HTU21D;37392;50.964;6.952;2024-01-25T03:55:20;5.66;-0.16
51305;HTU21D;37392;50.964;6.952;2024-01-25T03:57:45;5.63;0.57
51305;HTU21D;37392;50.964;6.952;2024-01-25T04:00:11;5.67;0.81
51305;HTU21D;37392;50.964;6.952;2024-01-25T04:02:37;5.64;0.58
51305;HTU21D;37392;50.964;6.952;2024-01-25T04:05:04;5.59;0.55
51305;HTU21D;37392;50.964;6.952;2024-01-25T04:07:30;5.53;0.90
51305;HTU21D;37392;50.964;6.952;2024-01-25T04:09:55;5.41;0.77
51305;HTU21D;37392;50.964;6.952;2024-01-25T04:12:21;5.34;1.08
51305;HTU21D;37392;50.964;6.952;2024-01-25T04:14:46;5.26;1.06
51305;HTU21D;37392;50.964;6.952;2024-01-25T04:17:12;5.20;1.16
51305;HTU21D;37392;50.964;6.952;2024-01-25T04:19:37;5.19;1.25
51305;HTU21D;37392;50.964;6.952;2024-01-25T04:22:03;5.12;1.27
51305;HTU21D;37392;50.964;6.952;2024-01-25T04:24:29;5.09;1.42
51305;HTU21D;37392;50.964;6.952;2024-01-25T04:26:54;5.12;2.21
51305;HTU21D;37392;50.964;6.952;2024-01-25T04:29:20;5.08;2.16
51305;HTU21D;37392;50.964;6.952;2024-01-25T04:31:46;5.02;1.86
51305;HTU21D;37392;50.964;6.952;2024-01-25T04:34:13;4.94;1.62
51305;HTU21D;37392;50.964;6.952;2024-01-25T04:36:39;4.83;1.64
51305;HTU21D;37392;50.964;6.952;2024-01-25T04:39:05;4.79;2.48
51305;HTU21D;37392;50.964;6.952;2024-01-25T04:41:31;4.96;3.93
51305;HTU21D;37392;50.964;6.952;2024-01-25T04:43:56;5.04;3.81
51305;HTU21D;37392;50.964;6.952;2024-01-25T04:46:21;4.97;3.00
51305;HTU21D;37392;50.964;6.952;2024-01-25T04:48:47;4.89;2.55
51305;HTU21D;37392;50.964;6.952;2024-01-25T04:51:16;4.79;2.15
51305;HTU21D;37392;50.964;6.952;2024-01-25T04:53:42;4.79;3.09
51305;HTU21D;37392;50.964;6.952;2024-01-25T04:56:08;4.96;4.63
51305;HTU21D;37392;50.964;6.952;2024-01-25T04:58:34;4.91;3.80
51305;HTU21D;37392;50.964;6.952;2024-01-25T05:01:00;4.81;3.06
51305;HTU21D;37392;50.964;6.952;2024-01-25T05:03:25;4.73;3.23
51305;HTU21D;37392;50.964;6.952;2024-01-25T05:05:51;4.64;3.08
51305;HTU21D;37392;50.964;6.952;2024-01-25T05:08:16;4.56;2.85
51305;HTU21D;37392;50.964;6.952;2024-01-25T05:10:42;4.53;3.16
51305;HTU21D;37392;50.964;6.952;2024-01-25T05:13:08;4.49;3.22
51305;HTU21D;37392;50.964;6.952;2024-01-25T05:15:34;4.42;3.10
51305;HTU21D;37392;50.964;6.952;2024-01-25T05:18:00;4.38;3.67
51305;HTU21D;37392;50.964;6.952;2024-01-25T05:20:26;4.31;3.90
51305;HTU21D;37392;50.964;6.952;2024-01-25T05:22:57;4.34;4.22
51305;HTU21D;37392;50.964;6.952;2024-01-25T05:25:26;4.33;3.99
51305;HTU21D;37392;50.964;6.952;2024-01-25T05:27:53;4.33;4.23
51305;HTU21D;37392;50.964;6.952;2024-01-25T05:30:20;4.31;4.21
51305;HTU21D;37392;50.964;6.952;2024-01-25T05:32:46;4.26;4.19
51305;HTU21D;37392;50.964;6.952;2024-01-25T05:35:13;4.27;4.41
51305;HTU21D;37392;50.964;6.952;2024-01-25T05:37:39;4.26;4.36
51305;HTU21D;37392;50.964;6.952;2024-01-25T05:40:05;4.15;4.02
51305;HTU21D;37392;50.964;6.952;2024-01-25T05:42:31;4.16;4.42
51305;HTU21D;37392;50.964;6.952;2024-01-25T05:44:57;4.23;5.10
51305;HTU21D;37392;50.964;6.952;2024-01-25T05:47:23;4.23;4.86
51305;HTU21D;37392;50.964;6.952;2024-01-25T05:49:49;4.17;4.57
51305;HTU21D;37392;50.964;6.952;2024-01-25T05:52:14;4.17;4.87
51305;HTU21D;37392;50.964;6.952;2024-01-25T05:54:40;4.27;5.50
51305;HTU21D;37392;50.964;6.952;2024-01-25T05:57:06;4.23;5.43
51305;HTU21D;37392;50.964;6.952;2024-01-25T05:59:31;4.26;5.15
51305;HTU21D;37392;50.964;6.952;2024-01-25T06:01:57;4.28;5.47
51305;HTU21D;37392;50.964;6.952;2024-01-25T06:04:22;4.20;5.15
51305;HTU21D;37392;50.964;6.952;2024-01-25T06:06:48;4.18;5.05
51305;HTU21D;37392;50.964;6.952;2024-01-25T06:09:13;4.15;5.05
51305;HTU21D;37392;50.964;6.952;2024-01-25T06:11:40;4.07;4.85
51305;HTU21D;37392;50.964;6.952;2024-01-25T06:14:08;4.09;5.41
51305;HTU21D;37392;50.964;6.952;2024-01-25T06:16:34;4.09;5.34
51305;HTU21D;37392;50.964;6.952;2024-01-25T06:18:59;4.17;5.97
51305;HTU21D;37392;50.964;6.952;2024-01-25T06:21:26;4.14;5.67
51305;HTU21D;37392;50.964;6.952;2024-01-25T06:24:02;4.16;5.70
51305;HTU21D;37392;50.964;6.952;2024-01-25T06:33:19;3.97;4.71
51305;HTU21D;37392;50.964;6.952;2024-01-25T06:36:07;3.80;4.78
51305;HTU21D;37392;50.964;6.952;2024-01-25T06:38:53;3.76;5.10
51305;HTU21D;37392;50.964;6.952;2024-01-25T06:41:49;3.73;5.21
51305;HTU21D;37392;50.964;6.952;2024-01-25T06:44:15;3.73;5.62
51305;HTU21D;37392;50.964;6.952;2024-01-25T06:46:42;3.74;5.95
51305;HTU21D;37392;50.964;6.952;2024-01-25T06:49:08;3.73;5.82
51305;HTU21D;37392;50.964;6.952;2024-01-25T06:51:33;3.79;5.99
51305;HTU21D;37392;50.964;6.952;2024-01-25T06:54:02;3.78;5.86
51305;HTU21D;37392;50.964;6.952;2024-01-25T06:56:27;3.86;6.35
51305;HTU21D;37392;50.964;6.952;2024-01-25T06:58:53;3.85;6.18
51305;HTU21D;37392;50.964;6.952;2024-01-25T07:01:22;3.95;6.46
51305;HTU21D;37392;50.964;6.952;2024-01-25T07:03:48;3.98;6.32
51305;HTU21D;37392;50.964;6.952;2024-01-25T07:06:17;3.87;5.97
51305;HTU21D;37392;50.964;6.952;2024-01-25T07:08:44;3.93;6.19
51305;HTU21D;37392;50.964;6.952;2024-01-25T07:11:10;3.88;6.05
51305;HTU21D;37392;50.964;6.952;2024-01-25T07:13:35;3.90;6.02
51305;HTU21D;37392;50.964;6.952;2024-01-25T07:16:01;3.85;5.80
51305;HTU21D;37392;50.964;6.952;2024-01-25T07:18:27;3.79;5.60
51305;HTU21D;37392;50.964;6.952;2024-01-25T07:20:53;3.80;5.74
51305;HTU21D;37392;50.964;6.952;2024-01-25T07:23:33;3.76;5.76
51305;HTU21D;37392;50.964;6.952;2024-01-25T07:25:59;3.77;5.74
51305;HTU21D;37392;50.964;6.952;2024-01-25T07:28:25;3.83;6.23
51305;HTU21D;37392;50.964;6.952;2024-01-25T07:30:56;3.98;6.87
51305;HTU21D;37392;50.964;6.952;2024-01-25T07:33:21;4.08;6.89
51305;HTU21D;37392;50.964;6.952;2024-01-25T07:35:47;4.14;6.78
51305;HTU21D;37392;50.964;6.952;2024-01-25T07:38:17;4.17;6.44
51305;HTU21D;37392;50.964;6.952;2024-01-25T07:40:48;4.15;5.86
51305;HTU21D;37392;50.964;6.952;2024-01-25T07:43:14;4.15;6.01
51305;HTU21D;37392;50.964;6.952;2024-01-25T07:45:40;4.20;6.02
51305;HTU21D;37392;50.964;6.952;2024-01-25T07:48:06;4.28;6.32
51305;HTU21D;37392;50.964;6.952;2024-01-25T07:50:32;4.38;6.55
51305;HTU21D;37392;50.964;6.952;2024-01-25T07:52:58;4.54;6.71
51305;HTU21D;37392;50.964;6.952;2024-01-25T07:55:26;4.58;6.51
51305;HTU21D;37392;50.964;6.952;2024-01-25T07:57:52;4.68;6.72
51305;HTU21D;37392;50.964;6.952;2024-01-25T08:00:17;4.82;6.73
51305;HTU21D;37392;50.964;6.952;2024-01-25T08:02:43;4.97;6.88
51305;HTU21D;37392;50.964;6.952;2024-01-25T08:05:10;5.24;7.33
51305;HTU21D;37392;50.964;6.952;2024-01-25T08:07:37;5.59;7.48
51305;HTU21D;37392;50.964;6.952;2024-01-25T08:10:04;5.94;7.29
51305;HTU21D;37392;50.964;6.952;2024-01-25T08:12:30;6.13;6.31
51305;HTU21D;37392;50.964;6.952;2024-01-25T08:14:56;6.40;6.15
51305;HTU21D;37392;50.964;6.952;2024-01-25T08:17:21;6.65;5.96
51305;HTU21D;37392;50.964;6.952;2024-01-25T08:19:47;6.86;5.09
51305;HTU21D;37392;50.964;6.952;2024-01-25T08:22:13;7.19;6.17
51305;HTU21D;37392;50.964;6.952;2024-01-25T08:24:39;7.41;4.60
51305;HTU21D;37392;50.964;6.952;2024-01-25T08:27:05;7.69;4.80
51305;HTU21D;37392;50.964;6.952;2024-01-25T08:29:32;7.87;2.20
51305;HTU21D;37392;50.964;6.952;2024-01-25T08:31:58;7.96;1.54
51305;HTU21D;37392;50.964;6.952;2024-01-25T08:34:24;8.01;0.81
51305;HTU21D;37392;50.964;6.952;2024-01-25T08:36:49;8.04;0.02
51305;HTU21D;37392;50.964;6.952;2024-01-25T08:39:15;8.01;0.01
51305;HTU21D;37392;50.964;6.952;2024-01-25T08:41:41;7.98;-1.11
51305;HTU21D;37392;50.964;6.952;2024-01-25T08:44:07;8.02;-1.32
51305;HTU21D;37392;50.964;6.952;2024-01-25T08:46:33;8.07;-0.67
51305;HTU21D;37392;50.964;6.952;2024-01-25T08:48:59;8.18;-2.35
51305;HTU21D;37392;50.964;6.952;2024-01-25T08:51:24;8.27;-1.43
51305;HTU21D;37392;50.964;6.952;2024-01-25T08:53:50;8.45;-1.83
51305;HTU21D;37392;50.964;6.952;2024-01-25T08:56:16;8.65;-3.09
51305;HTU21D;37392;50.964;6.952;2024-01-25T08:58:42;8.83;-3.31
51305;HTU21D;37392;50.964;6.952;2024-01-25T09:01:08;9.00;-4.97
51305;HTU21D;37392;50.964;6.952;2024-01-25T09:03:34;9.05;117.49
51305;HTU21D;37392;50.964;6.952;2024-01-25T09:06:00;9.12;115.94
51305;HTU21D;37392;50.964;6.952;2024-01-25T09:08:30;9.18;115.60
51305;HTU21D;37392;50.964;6.952;2024-01-25T09:10:57;9.33;114.74
51305;HTU21D;37392;50.964;6.952;2024-01-25T09:13:23;9.40;112.42
51305;HTU21D;37392;50.964;6.952;2024-01-25T09:15:49;9.54;112.36
51305;HTU21D;37392;50.964;6.952;2024-01-25T09:18:14;9.71;111.65
51305;HTU21D;37392;50.964;6.952;2024-01-25T09:20:47;9.79;110.79
51305;HTU21D;37392;50.964;6.952;2024-01-25T09:23:14;9.89;109.31
51305;HTU21D;37392;50.964;6.952;2024-01-25T09:25:46;9.96;107.41
51305;HTU21D;37392;50.964;6.952;2024-01-25T09:28:12;9.89;105.72
51305;HTU21D;37392;50.964;6.952;2024-01-25T09:30:41;9.89;105.78
51305;HTU21D;37392;50.964;6.952;2024-01-25T09:33:07;9.95;104.84
51305;HTU21D;37392;50.964;6.952;2024-01-25T09:35:32;10.07;106.72
51305;HTU21D;37392;50.964;6.952;2024-01-25T09:37:58;10.35;105.68
51305;HTU21D;37392;50.964;6.952;2024-01-25T09:40:24;10.48;104.69
51305;HTU21D;37392;50.964;6.952;2024-01-25T09:42:54;10.67;103.33
51305;HTU21D;37392;50.964;6.952;2024-01-25T09:45:31;10.86;101.59
51305;HTU21D;37392;50.964;6.952;2024-01-25T09:47:57;11.09;100.89
51305;HTU21D;37392;50.964;6.952;2024-01-25T09:50:38;11.12;99.62
51305;HTU21D;37392;50.964;6.952;2024-01-25T09:53:25;10.95;98.68
51305;HTU21D;37392;50.964;6.952;2024-01-25T09:56:10;11.15;99.62
51305;HTU21D;37392;50.964;6.952;2024-01-25T09:58:42;11.40;98.16
51305;HTU21D;37392;50.964;6.952;2024-01-25T10:01:27;11.64;97.68
51305;HTU21D;37392;50.964;6.952;2024-01-25T10:03:58;11.68;96.28
51305;HTU21D;37392;50.964;6.952;2024-01-25T10:09:31;11.90;94.04
51305;HTU21D;37392;50.964;6.952;2024-01-25T10:12:18;11.75;93.63
51305;HTU21D;37392;50.964;6.952;2024-01-25T10:14:52;11.90;93.80
51305;HTU21D;37392;50.964;6.952;2024-01-25T10:17:35;12.29;92.85
51305;HTU21D;37392;50.964;6.952;2024-01-25T10:20:07;12.35;90.73
51305;HTU21D;37392;50.964;6.952;2024-01-25T10:22:38;12.49;91.27
51305;HTU21D;37392;50.964;6.952;2024-01-25T10:25:19;12.66;89.86
51305;HTU21D;37392;50.964;6.952;2024-01-25T10:27:46;12.73;88.67
51305;HTU21D;37392;50.964;6.952;2024-01-25T10:30:22;13.09;88.72
51305;HTU21D;37392;50.964;6.952;2024-01-25T10:32:59;13.38;87.24
51305;HTU21D;37392;50.964;6.952;2024-01-25T10:35:40;13.80;84.59
51305;HTU21D;37392;50.964;6.952;2024-01-25T10:38:19;14.27;83.23
51305;HTU21D;37392;50.964;6.952;2024-01-25T10:40:49;14.43;82.28
51305;HTU21D;37392;50.964;6.952;2024-01-25T10:43:15;14.45;80.79
51305;HTU21D;37392;50.964;6.952;2024-01-25T10:45:56;14.44;80.50
51305;HTU21D;37392;50.964;6.952;2024-01-25T10:48:57;14.48;80.30
51305;HTU21D;37392;50.964;6.952;2024-01-25T10:51:46;14.22;80.24
51305;HTU21D;37392;50.964;6.952;2024-01-25T10:54:29;14.19;80.55
51305;HTU21D;37392;50.964;6.952;2024-01-25T10:57:42;14.12;79.98
51305;HTU21D;37392;50.964;6.952;2024-01-25T11:00:31;14.01;80.67
51305;HTU21D;37392;50.964;6.952;2024-01-25T11:09:51;13.50;81.54
51305;HTU21D;37392;50.964;6.952;2024-01-25T11:13:13;13.38;82.01
51305;HTU21D;37392;50.964;6.952;2024-01-25T11:15:50;13.30;81.79
51305;HTU21D;37392;50.964;6.952;2024-01-25T11:18:19;13.32;81.37
51305;HTU21D;37392;50.964;6.952;2024-01-25T11:21:08;13.22;81.65
51305;HTU21D;37392;50.964;6.952;2024-01-25T11:23:51;13.25;81.30
51305;HTU21D;37392;50.964;6.952;2024-01-25T11:29:52;13.16;81.27
51305;HTU21D;37392;50.964;6.952;2024-01-25T11:32:41;13.26;81.58
51305;HTU21D;37392;50.964;6.952;2024-01-25T11:35:54;13.32;80.81
51305;HTU21D;37392;50.964;6.952;2024-01-25T11:38:30;13.40;80.30
51305;HTU21D;37392;50.964;6.952;2024-01-25T11:41:13;13.38;79.45
51305;HTU21D;37392;50.964;6.952;2024-01-25T11:43:52;13.33;79.39
51305;HTU21D;37392;50.964;6.952;2024-01-25T11:49:23;13.25;79.53
51305;HTU21D;37392;50.964;6.952;2024-01-25T11:51:53;13.36;79.49
51305;HTU21D;37392;50.964;6.952;2024-01-25T11:54:47;13.54;79.17
51305;HTU21D;37392;50.964;6.952;2024-01-25T11:57:38;13.65;78.43
51305;HTU21D;37392;50.964;6.952;2024-01-25T12:00:16;13.83;77.99
51305;HTU21D;37392;50.964;6.952;2024-01-25T12:03:03;13.80;77.36
51305;HTU21D;37392;50.964;6.952;2024-01-25T12:05:29;13.78;76.59
51305;HTU21D;37392;50.964;6.952;2024-01-25T12:07:58;13.51;76.64
51305;HTU21D;37392;50.964;6.952;2024-01-25T12:10:24;13.49;77.47
51305;HTU21D;37392;50.964;6.952;2024-01-25T12:12:58;13.40;77.63
51305;HTU21D;37392;50.964;6.952;2024-01-25T12:15:25;13.43;77.66
51305;HTU21D;37392;50.964;6.952;2024-01-25T12:17:54;13.46;77.50
51305;HTU21D;37392;50.964;6.952;2024-01-25T12:23:56;13.64;76.07
51305;HTU21D;37392;50.964;6.952;2024-01-25T12:29:51;13.41;75.34
51305;HTU21D;37392;50.964;6.952;2024-01-25T12:32:19;13.54;75.93
51305;HTU21D;37392;50.964;6.952;2024-01-25T12:35:05;13.65;75.65
51305;HTU21D;37392;50.964;6.952;2024-01-25T12:38:13;13.63;74.58
51305;HTU21D;37392;50.964;6.952;2024-01-25T12:44:08;13.82;74.31
51305;HTU21D;37392;50.964;6.952;2024-01-25T12:46:34;13.74;74.15
51305;HTU21D;37392;50.964;6.952;2024-01-25T12:50:04;13.66;74.52
51305;HTU21D;37392;50.964;6.952;2024-01-25T12:52:44;13.54;75.36
51305;HTU21D;37392;50.964;6.952;2024-01-25T12:55:26;13.56;75.15
51305;HTU21D;37392;50.964;6.952;2024-01-25T12:58:03;13.58;75.03
51305;HTU21D;37392;50.964;6.952;2024-01-25T13:00:58;13.43;76.02
51305;HTU21D;37392;50.964;6.952;2024-01-25T13:03:24;13.43;76.27
51305;HTU21D;37392;50.964;6.952;2024-01-25T13:05:49;13.43;76.18
51305;HTU21D;37392;50.964;6.952;2024-01-25T13:08:15;13.22;76.47
51305;HTU21D;37392;50.964;6.952;2024-01-25T13:10:40;13.12;76.95
51305;HTU21D;37392;50.964;6.952;2024-01-25T13:13:06;13.06;77.07
51305;HTU21D;37392;50.964;6.952;2024-01-25T13:15:31;12.97;77.67
51305;HTU21D;37392;50.964;6.952;2024-01-25T13:17:57;13.02;77.76
51305;HTU21D;37392;50.964;6.952;2024-01-25T13:20:22;12.95;77.50
51305;HTU21D;37392;50.964;6.952;2024-01-25T13:22:48;12.95;77.45
51305;HTU21D;37392;50.964;6.952;2024-01-25T13:25:13;12.89;77.52
51305;HTU21D;37392;50.964;6.952;2024-01-25T13:27:40;12.84;77.53
51305;HTU21D;37392;50.964;6.952;2024-01-25T13:30:06;12.94;77.40
51305;HTU21D;37392;50.964;6.952;2024-01-25T13:32:32;12.90;76.85
51305;HTU21D;37392;50.964;6.952;2024-01-25T13:34:57;12.92;77.18
51305;HTU21D;37392;50.964;6.952;2024-01-25T13:37:23;12.93;77.11
51305;HTU21D;37392;50.964;6.952;2024-01-25T13:39:48;12.87;77.11
51305;HTU21D;37392;50.964;6.952;2024-01-25T13:42:14;12.86;77.17
51305;HTU21D;37392;50.964;6.952;2024-01-25T13:44:39;12.87;77.08
51305;HTU21D;37392;50.964;6.952;2024-01-25T13:47:05;12.85;77.32
51305;HTU21D;37392;50.964;6.952;2024-01-25T13:49:31;12.88;77.09
51305;HTU21D;37392;50.964;6.952;2024-01-25T13:51:56;12.99;77.27
51305;HTU21D;37392;50.964;6.952;2024-01-25T13:54:25;12.96;76.76
51305;HTU21D;37392;50.964;6.952;2024-01-25T13:56:50;13.01;76.86
51305;HTU21D;37392;50.964;6.952;2024-01-25T13:59:16;12.97;76.75
51305;HTU21D;37392;50.964;6.952;2024-01-25T14:01:41;12.95;76.89
51305;HTU21D;37392;50.964;6.952;2024-01-25T14:04:07;12.97;77.04
51305;HTU21D;37392;50.964;6.952;2024-01-25T14:06:32;13.01;77.05
51305;HTU21D;37392;50.964;6.952;2024-01-25T14:08:58;12.93;76.66
51305;HTU21D;37392;50.964;6.952;2024-01-25T14:11:24;12.89;76.85
51305;HTU21D;37392;50.964;6.952;2024-01-25T14:13:51;12.80;76.98
51305;HTU21D;37392;50.964;6.952;2024-01-25T14:16:17;12.73;77.15
51305;HTU21D;37392;50.964;6.952;2024-01-25T14:18:43;12.74;77.74
51305;HTU21D;37392;50.964;6.952;2024-01-25T14:21:09;12.71;77.53
51305;HTU21D;37392;50.964;6.952;2024-01-25T14:23:35;12.59;77.33
51305;HTU21D;37392;50.964;6.952;2024-01-25T14:26:01;12.55;77.61
51305;HTU21D;37392;50.964;6.952;2024-01-25T14:28:26;12.51;77.73
51305;HTU21D;37392;50.964;6.952;2024-01-25T14:30:52;12.52;77.97
51305;HTU21D;37392;50.964;6.952;2024-01-25T14:33:17;12.50;77.49
51305;HTU21D;37392;50.964;6.952;2024-01-25T14:35:43;12.47;77.27
51305;HTU21D;37392;50.964;6.952;2024-01-25T14:38:09;12.47;77.50
51305;HTU21D;37392;50.964;6.952;2024-01-25T14:40:35;12.41;77.60
51305;HTU21D;37392;50.964;6.952;2024-01-25T14:43:00;12.37;78.18
51305;HTU21D;37392;50.964;6.952;2024-01-25T14:45:27;12.37;78.53
51305;HTU21D;37392;50.964;6.952;2024-01-25T14:47:55;12.35;78.23
51305;HTU21D;37392;50.964;6.952;2024-01-25T14:50:20;12.28;78.01
51305;HTU21D;37392;50.964;6.952;2024-01-25T14:52:46;12.19;78.17
51305;HTU21D;37392;50.964;6.952;2024-01-25T14:55:12;12.13;78.24
51305;HTU21D;37392;50.964;6.952;2024-01-25T14:57:37;12.06;78.38
51305;HTU21D;37392;50.964;6.952;2024-01-25T15:00:03;12.02;78.69
51305;HTU21D;37392;50.964;6.952;2024-01-25T15:02:32;12.01;78.88
51305;HTU21D;37392;50.964;6.952;2024-01-25T15:04:58;11.96;78.98
51305;HTU21D;37392;50.964;6.952;2024-01-25T15:07:24;11.98;79.06
51305;HTU21D;37392;50.964;6.952;2024-01-25T15:09:50;11.99;78.93
51305;HTU21D;37392;50.964;6.952;2024-01-25T15:12:15;11.98;78.90
51305;HTU21D;37392;50.964;6.952;2024-01-25T15:14:45;11.96;78.75
51305;HTU21D;37392;50.964;6.952;2024-01-25T15:17:10;11.90;78.90
51305;HTU21D;37392;50.964;6.952;2024-01-25T15:19:36;11.93;78.95
51305;HTU21D;37392;50.964;6.952;2024-01-25T15:22:03;11.90;79.04
51305;HTU21D;37392;50.964;6.952;2024-01-25T15:24:29;11.86;79.08
51305;HTU21D;37392;50.964;6.952;2024-01-25T15:26:57;11.84;79.28
51305;HTU21D;37392;50.964;6.952;2024-01-25T15:29:22;11.84;79.29
51305;HTU21D;37392;50.964;6.952;2024-01-25T15:31:48;11.77;79.34
51305;HTU21D;37392;50.964;6.952;2024-01-25T15:34:13;11.69;79.58
51305;HTU21D;37392;50.964;6.952;2024-01-25T15:36:39;11.66;79.90
51305;HTU21D;37392;50.964;6.952;2024-01-25T15:39:09;11.60;80.18
51305;HTU21D;37392;50.964;6.952;2024-01-25T15:41:36;11.49;80.25
51305;HTU21D;37392;50.964;6.952;2024-01-25T15:44:01;11.42;80.78
51305;HTU21D;37392;50.964;6.952;2024-01-25T15:46:27;11.32;81.04
51305;HTU21D;37392;50.964;6.952;2024-01-25T15:48:52;11.29;81.23
51305;HTU21D;37392;50.964;6.952;2024-01-25T15:51:20;11.24;81.57
51305;HTU21D;37392;50.964;6.952;2024-01-25T15:53:47;11.18;81.93
51305;HTU21D;37392;50.964;6.952;2024-01-25T15:56:13;11.19;81.99
51305;HTU21D;37392;50.964;6.952;2024-01-25T15:58:39;11.12;82.23
51305;HTU21D;37392;50.964;6.952;2024-01-25T16:01:04;11.09;82.54
51305;HTU21D;37392;50.964;6.952;2024-01-25T16:03:30;11.07;82.89
51305;HTU21D;37392;50.964;6.952;2024-01-25T16:05:55;11.03;83.10
51305;HTU21D;37392;50.964;6.952;2024-01-25T16:08:22;10.97;83.58
51305;HTU21D;37392;50.964;6.952;2024-01-25T16:10:48;10.93;83.85